sensor_id;sensor_type;location;lat;lon;timestamp;P1;durP1;ratioP1;P2;durP2;ratioP2
75295;SDS011;64623;44.738;37.804;2023-08-31T00:00:04;18.15;;;12.60;;
75295;SDS011;64623;44.738;37.804;2023-08-31T00:01:08;19.33;;;10.50;;
75295;SDS011;64623;44.738;37.804;2023-08-31T00:02:11;19.88;;;10.02;;
75295;SDS011;64623;44.738;37.804;2023-08-31T00:03:14;14.27;;;12.20;;
75295;SDS011;64623;44.738;37.804;2023-08-31T00:04:17;13.40;;;11.02;;
75295;SDS011;64623;44.738;37.804;2023-08-31T00:05:20;14.15;;;11.68;;
75295;SDS011;64623;44.738;37.804;2023-08-31T00:06:24;13.57;;;11.55;;
75295;SDS011;64623;44.738;37.804;2023-08-31T00:07:26;17.13;;;11.80;;
75295;SDS011;64623;44.738;37.804;2023-08-31T00:08:29;17.48;;;11.70;;
75295;SDS011;64623;44.738;37.804;2023-08-31T00:09:32;22.92;;;12.35;;
75295;SDS011;64623;44.738;37.804;2023-08-31T00:10:36;20.40;;;10.73;;
75295;SDS011;64623;44.738;37.804;2023-08-31T00:11:39;21.67;;;12.02;;
75295;SDS011;64623;44.738;37.804;2023-08-31T00:12:42;21.48;;;12.52;;
75295;SDS011;64623;44.738;37.804;2023-08-31T00:13:45;21.02;;;12.93;;
75295;SDS011;64623;44.738;37.804;2023-08-31T00:14:49;22.85;;;13.07;;
75295;SDS011;64623;44.738;37.804;2023-08-31T00:15:55;18.08;;;15.05;;
75295;SDS011;64623;44.738;37.804;2023-08-31T00:17:03;23.98;;;13.25;;
75295;SDS011;64623;44.738;37.804;2023-08-31T00:18:06;25.48;;;15.70;;
75295;SDS011;64623;44.738;37.804;2023-08-31T00:19:09;24.52;;;15.63;;
75295;SDS011;64623;44.738;37.804;2023-08-31T00:20:11;23.50;;;14.82;;
75295;SDS011;64623;44.738;37.804;2023-08-31T00:21:15;22.27;;;14.45;;
75295;SDS011;64623;44.738;37.804;2023-08-31T00:22:18;19.42;;;12.18;;
75295;SDS011;64623;44.738;37.804;2023-08-31T00:23:20;17.67;;;12.45;;
75295;SDS011;64623;44.738;37.804;2023-08-31T00:24:23;18.40;;;12.00;;
75295;SDS011;64623;44.738;37.804;2023-08-31T00:25:31;16.30;;;13.60;;
75295;SDS011;64623;44.738;37.804;2023-08-31T00:26:34;14.10;;;11.50;;
75295;SDS011;64623;44.738;37.804;2023-08-31T00:27:45;14.90;;;10.43;;
75295;SDS011;64623;44.738;37.804;2023-08-31T00:28:50;15.30;;;11.02;;
75295;SDS011;64623;44.738;37.804;2023-08-31T00:29:53;20.42;;;12.60;;
75295;SDS011;64623;44.738;37.804;2023-08-31T00:31:00;18.13;;;11.82;;
75295;SDS011;64623;44.738;37.804;2023-08-31T00:32:07;17.40;;;12.60;;
75295;SDS011;64623;44.738;37.804;2023-08-31T00:33:12;21.38;;;12.52;;
75295;SDS011;64623;44.738;37.804;2023-08-31T00:34:15;22.90;;;12.50;;
75295;SDS011;64623;44.738;37.804;2023-08-31T00:35:19;19.60;;;10.75;;
75295;SDS011;64623;44.738;37.804;2023-08-31T00:36:22;20.85;;;10.95;;
75295;SDS011;64623;44.738;37.804;2023-08-31T00:37:25;21.80;;;11.07;;
75295;SDS011;64623;44.738;37.804;2023-08-31T00:38:28;20.52;;;13.68;;
75295;SDS011;64623;44.738;37.804;2023-08-31T00:39:31;14.50;;;11.48;;
75295;SDS011;64623;44.738;37.804;2023-08-31T00:40:42;16.85;;;11.23;;
75295;SDS011;64623;44.738;37.804;2023-08-31T00:41:49;15.35;;;9.85;;
75295;SDS011;64623;44.738;37.804;2023-08-31T00:42:55;12.07;;;10.88;;
75295;SDS011;64623;44.738;37.804;2023-08-31T00:43:59;13.48;;;12.20;;
75295;SDS011;64623;44.738;37.804;2023-08-31T00:45:01;13.77;;;12.13;;
75295;SDS011;64623;44.738;37.804;2023-08-31T00:46:05;14.10;;;12.45;;
75295;SDS011;64623;44.738;37.804;2023-08-31T00:47:08;13.60;;;12.15;;
75295;SDS011;64623;44.738;37.804;2023-08-31T00:48:12;15.52;;;11.80;;
75295;SDS011;64623;44.738;37.804;2023-08-31T00:49:19;16.30;;;11.85;;
75295;SDS011;64623;44.738;37.804;2023-08-31T00:50:22;11.90;;;10.63;;
75295;SDS011;64623;44.738;37.804;2023-08-31T00:51:25;16.25;;;9.73;;
75295;SDS011;64623;44.738;37.804;2023-08-31T00:52:28;16.10;;;11.75;;
75295;SDS011;64623;44.738;37.804;2023-08-31T00:53:31;20.27;;;11.02;;
75295;SDS011;64623;44.738;37.804;2023-08-31T00:54:34;18.52;;;13.07;;
75295;SDS011;64623;44.738;37.804;2023-08-31T00:55:39;18.70;;;11.77;;
75295;SDS011;64623;44.738;37.804;2023-08-31T00:56:45;17.10;;;12.88;;
75295;SDS011;64623;44.738;37.804;2023-08-31T00:57:48;26.52;;;14.90;;
75295;SDS011;64623;44.738;37.804;2023-08-31T00:58:51;31.77;;;14.30;;
75295;SDS011;64623;44.738;37.804;2023-08-31T00:59:54;29.05;;;15.13;;
75295;SDS011;64623;44.738;37.804;2023-08-31T01:02:37;20.20;;;14.32;;
75295;SDS011;64623;44.738;37.804;2023-08-31T01:04:58;24.42;;;13.93;;
75295;SDS011;64623;44.738;37.804;2023-08-31T01:06:12;21.17;;;14.50;;
75295;SDS011;64623;44.738;37.804;2023-08-31T01:07:21;18.95;;;13.48;;
75295;SDS011;64623;44.738;37.804;2023-08-31T01:08:50;23.02;;;12.23;;
75295;SDS011;64623;44.738;37.804;2023-08-31T01:14:16;23.05;;;14.23;;
75295;SDS011;64623;44.738;37.804;2023-08-31T01:15:21;20.33;;;14.15;;
75295;SDS011;64623;44.738;37.804;2023-08-31T01:16:24;22.40;;;15.15;;
75295;SDS011;64623;44.738;37.804;2023-08-31T01:17:29;19.25;;;13.27;;
75295;SDS011;64623;44.738;37.804;2023-08-31T01:18:34;16.77;;;13.95;;
75295;SDS011;64623;44.738;37.804;2023-08-31T01:21:21;14.77;;;10.25;;
75295;SDS011;64623;44.738;37.804;2023-08-31T01:22:31;19.17;;;14.55;;
75295;SDS011;64623;44.738;37.804;2023-08-31T01:23:49;20.83;;;15.48;;
75295;SDS011;64623;44.738;37.804;2023-08-31T01:24:53;19.10;;;14.63;;
75295;SDS011;64623;44.738;37.804;2023-08-31T01:25:57;22.35;;;13.90;;
75295;SDS011;64623;44.738;37.804;2023-08-31T01:27:00;21.10;;;15.50;;
75295;SDS011;64623;44.738;37.804;2023-08-31T01:28:04;18.20;;;15.05;;
75295;SDS011;64623;44.738;37.804;2023-08-31T01:29:08;19.50;;;14.07;;
75295;SDS011;64623;44.738;37.804;2023-08-31T01:30:11;23.60;;;13.27;;
75295;SDS011;64623;44.738;37.804;2023-08-31T01:31:15;19.02;;;15.30;;
75295;SDS011;64623;44.738;37.804;2023-08-31T01:32:18;21.85;;;12.07;;
75295;SDS011;64623;44.738;37.804;2023-08-31T01:33:21;19.73;;;14.32;;
75295;SDS011;64623;44.738;37.804;2023-08-31T01:34:24;18.35;;;14.10;;
75295;SDS011;64623;44.738;37.804;2023-08-31T01:35:30;24.90;;;12.10;;
75295;SDS011;64623;44.738;37.804;2023-08-31T01:36:46;22.40;;;13.23;;
75295;SDS011;64623;44.738;37.804;2023-08-31T01:38:02;17.92;;;11.32;;
75295;SDS011;64623;44.738;37.804;2023-08-31T01:39:11;15.90;;;12.13;;
75295;SDS011;64623;44.738;37.804;2023-08-31T01:40:24;18.10;;;13.57;;
75295;SDS011;64623;44.738;37.804;2023-08-31T01:41:55;22.73;;;10.80;;
75295;SDS011;64623;44.738;37.804;2023-08-31T01:43:01;20.65;;;13.38;;
75295;SDS011;64623;44.738;37.804;2023-08-31T01:44:08;22.85;;;13.50;;
75295;SDS011;64623;44.738;37.804;2023-08-31T01:45:19;18.60;;;14.13;;
75295;SDS011;64623;44.738;37.804;2023-08-31T01:46:23;20.63;;;14.07;;
75295;SDS011;64623;44.738;37.804;2023-08-31T01:47:26;24.80;;;14.38;;
75295;SDS011;64623;44.738;37.804;2023-08-31T01:48:30;17.17;;;11.93;;
75295;SDS011;64623;44.738;37.804;2023-08-31T01:49:37;19.25;;;12.40;;
75295;SDS011;64623;44.738;37.804;2023-08-31T01:50:40;19.15;;;15.25;;
75295;SDS011;64623;44.738;37.804;2023-08-31T01:51:43;21.77;;;11.68;;
75295;SDS011;64623;44.738;37.804;2023-08-31T01:52:46;19.35;;;11.82;;
75295;SDS011;64623;44.738;37.804;2023-08-31T01:53:49;22.13;;;13.13;;
75295;SDS011;64623;44.738;37.804;2023-08-31T01:54:52;23.40;;;14.23;;
75295;SDS011;64623;44.738;37.804;2023-08-31T01:55:56;22.55;;;13.50;;
75295;SDS011;64623;44.738;37.804;2023-08-31T01:56:58;22.15;;;14.25;;
75295;SDS011;64623;44.738;37.804;2023-08-31T01:58:01;19.58;;;14.98;;
75295;SDS011;64623;44.738;37.804;2023-08-31T01:59:05;21.15;;;14.18;;
75295;SDS011;64623;44.738;37.804;2023-08-31T02:00:09;20.92;;;13.60;;
75295;SDS011;64623;44.738;37.804;2023-08-31T02:01:15;24.85;;;13.20;;
75295;SDS011;64623;44.738;37.804;2023-08-31T02:02:18;19.08;;;13.73;;
75295;SDS011;64623;44.738;37.804;2023-08-31T02:03:21;22.35;;;15.77;;
75295;SDS011;64623;44.738;37.804;2023-08-31T02:04:24;18.73;;;13.63;;
75295;SDS011;64623;44.738;37.804;2023-08-31T02:05:26;17.88;;;11.57;;
75295;SDS011;64623;44.738;37.804;2023-08-31T02:06:29;19.85;;;13.90;;
75295;SDS011;64623;44.738;37.804;2023-08-31T02:07:32;17.50;;;13.00;;
75295;SDS011;64623;44.738;37.804;2023-08-31T02:08:36;25.55;;;13.27;;
75295;SDS011;64623;44.738;37.804;2023-08-31T02:09:39;19.20;;;12.45;;
75295;SDS011;64623;44.738;37.804;2023-08-31T02:10:42;25.17;;;14.18;;
75295;SDS011;64623;44.738;37.804;2023-08-31T02:11:45;24.38;;;14.48;;
75295;SDS011;64623;44.738;37.804;2023-08-31T02:12:49;23.48;;;14.38;;
75295;SDS011;64623;44.738;37.804;2023-08-31T02:13:51;22.50;;;14.60;;
75295;SDS011;64623;44.738;37.804;2023-08-31T02:14:54;20.13;;;14.15;;
75295;SDS011;64623;44.738;37.804;2023-08-31T02:15:57;22.15;;;15.05;;
75295;SDS011;64623;44.738;37.804;2023-08-31T02:17:02;21.10;;;13.98;;
75295;SDS011;64623;44.738;37.804;2023-08-31T02:18:05;18.20;;;13.68;;
75295;SDS011;64623;44.738;37.804;2023-08-31T02:19:07;16.15;;;13.20;;
75295;SDS011;64623;44.738;37.804;2023-08-31T02:20:11;17.05;;;12.80;;
75295;SDS011;64623;44.738;37.804;2023-08-31T02:21:16;14.55;;;12.88;;
75295;SDS011;64623;44.738;37.804;2023-08-31T02:22:19;16.50;;;13.50;;
75295;SDS011;64623;44.738;37.804;2023-08-31T02:23:22;16.35;;;13.18;;
75295;SDS011;64623;44.738;37.804;2023-08-31T02:24:25;17.52;;;12.52;;
75295;SDS011;64623;44.738;37.804;2023-08-31T02:25:27;19.17;;;12.68;;
75295;SDS011;64623;44.738;37.804;2023-08-31T02:26:30;14.95;;;12.68;;
75295;SDS011;64623;44.738;37.804;2023-08-31T02:27:33;20.10;;;14.02;;
75295;SDS011;64623;44.738;37.804;2023-08-31T02:28:36;15.98;;;12.75;;
75295;SDS011;64623;44.738;37.804;2023-08-31T02:29:39;23.10;;;13.10;;
75295;SDS011;64623;44.738;37.804;2023-08-31T02:30:43;28.33;;;13.35;;
75295;SDS011;64623;44.738;37.804;2023-08-31T02:31:46;18.88;;;12.98;;
75295;SDS011;64623;44.738;37.804;2023-08-31T02:32:49;17.83;;;13.50;;
75295;SDS011;64623;44.738;37.804;2023-08-31T02:33:52;20.85;;;13.07;;
75295;SDS011;64623;44.738;37.804;2023-08-31T02:34:55;34.88;;;14.48;;
75295;SDS011;64623;44.738;37.804;2023-08-31T02:35:58;30.38;;;14.30;;
75295;SDS011;64623;44.738;37.804;2023-08-31T02:37:01;19.38;;;13.75;;
75295;SDS011;64623;44.738;37.804;2023-08-31T02:38:03;19.58;;;14.88;;
75295;SDS011;64623;44.738;37.804;2023-08-31T02:39:06;13.32;;;10.25;;
75295;SDS011;64623;44.738;37.804;2023-08-31T02:40:11;13.82;;;12.40;;
75295;SDS011;64623;44.738;37.804;2023-08-31T02:41:14;15.32;;;12.55;;
75295;SDS011;64623;44.738;37.804;2023-08-31T02:42:17;15.02;;;12.60;;
75295;SDS011;64623;44.738;37.804;2023-08-31T02:43:20;15.75;;;12.85;;
75295;SDS011;64623;44.738;37.804;2023-08-31T02:44:23;14.15;;;11.00;;
75295;SDS011;64623;44.738;37.804;2023-08-31T02:45:27;18.02;;;13.57;;
75295;SDS011;64623;44.738;37.804;2023-08-31T02:46:30;18.27;;;14.05;;
75295;SDS011;64623;44.738;37.804;2023-08-31T02:47:33;19.42;;;13.10;;
75295;SDS011;64623;44.738;37.804;2023-08-31T02:48:36;17.27;;;14.02;;
75295;SDS011;64623;44.738;37.804;2023-08-31T02:49:39;19.10;;;14.70;;
75295;SDS011;64623;44.738;37.804;2023-08-31T02:50:42;16.50;;;14.10;;
75295;SDS011;64623;44.738;37.804;2023-08-31T02:51:44;22.05;;;12.82;;
75295;SDS011;64623;44.738;37.804;2023-08-31T02:52:47;19.38;;;14.25;;
75295;SDS011;64623;44.738;37.804;2023-08-31T02:53:50;22.85;;;14.05;;
75295;SDS011;64623;44.738;37.804;2023-08-31T02:54:55;16.17;;;13.32;;
75295;SDS011;64623;44.738;37.804;2023-08-31T02:55:58;18.65;;;13.80;;
75295;SDS011;64623;44.738;37.804;2023-08-31T02:57:03;29.92;;;13.75;;
75295;SDS011;64623;44.738;37.804;2023-08-31T02:58:06;24.95;;;14.15;;
75295;SDS011;64623;44.738;37.804;2023-08-31T02:59:09;22.48;;;14.77;;
75295;SDS011;64623;44.738;37.804;2023-08-31T03:00:12;30.27;;;16.00;;
75295;SDS011;64623;44.738;37.804;2023-08-31T03:01:15;24.02;;;16.35;;
75295;SDS011;64623;44.738;37.804;2023-08-31T03:02:21;26.20;;;15.50;;
75295;SDS011;64623;44.738;37.804;2023-08-31T03:03:24;21.88;;;16.02;;
75295;SDS011;64623;44.738;37.804;2023-08-31T03:04:27;25.55;;;16.70;;
75295;SDS011;64623;44.738;37.804;2023-08-31T03:05:30;23.77;;;16.73;;
75295;SDS011;64623;44.738;37.804;2023-08-31T03:06:32;23.92;;;15.80;;
75295;SDS011;64623;44.738;37.804;2023-08-31T03:07:35;24.38;;;13.68;;
75295;SDS011;64623;44.738;37.804;2023-08-31T03:08:40;29.20;;;16.15;;
75295;SDS011;64623;44.738;37.804;2023-08-31T03:09:48;26.33;;;16.20;;
75295;SDS011;64623;44.738;37.804;2023-08-31T03:10:52;23.88;;;15.90;;
75295;SDS011;64623;44.738;37.804;2023-08-31T03:11:55;19.05;;;12.48;;
75295;SDS011;64623;44.738;37.804;2023-08-31T03:12:58;21.65;;;14.45;;
75295;SDS011;64623;44.738;37.804;2023-08-31T03:14:01;18.38;;;12.48;;
75295;SDS011;64623;44.738;37.804;2023-08-31T03:15:04;17.00;;;13.65;;
75295;SDS011;64623;44.738;37.804;2023-08-31T03:16:08;19.00;;;13.52;;
75295;SDS011;64623;44.738;37.804;2023-08-31T03:17:11;21.52;;;14.20;;
75295;SDS011;64623;44.738;37.804;2023-08-31T03:18:15;15.20;;;12.90;;
75295;SDS011;64623;44.738;37.804;2023-08-31T03:19:17;18.05;;;13.68;;
75295;SDS011;64623;44.738;37.804;2023-08-31T03:20:20;15.55;;;13.15;;
75295;SDS011;64623;44.738;37.804;2023-08-31T03:21:26;13.45;;;11.60;;
75295;SDS011;64623;44.738;37.804;2023-08-31T03:22:29;16.80;;;10.95;;
75295;SDS011;64623;44.738;37.804;2023-08-31T03:23:32;15.13;;;12.02;;
75295;SDS011;64623;44.738;37.804;2023-08-31T03:24:35;14.90;;;13.35;;
75295;SDS011;64623;44.738;37.804;2023-08-31T03:25:38;19.75;;;14.95;;
75295;SDS011;64623;44.738;37.804;2023-08-31T03:26:42;28.92;;;17.00;;
75295;SDS011;64623;44.738;37.804;2023-08-31T03:27:45;23.60;;;15.10;;
75295;SDS011;64623;44.738;37.804;2023-08-31T03:28:48;28.70;;;18.92;;
75295;SDS011;64623;44.738;37.804;2023-08-31T03:29:51;28.45;;;17.83;;
75295;SDS011;64623;44.738;37.804;2023-08-31T03:30:54;24.75;;;16.13;;
75295;SDS011;64623;44.738;37.804;2023-08-31T03:31:59;23.33;;;14.43;;
75295;SDS011;64623;44.738;37.804;2023-08-31T03:33:02;26.38;;;17.77;;
75295;SDS011;64623;44.738;37.804;2023-08-31T03:34:06;29.55;;;19.20;;
75295;SDS011;64623;44.738;37.804;2023-08-31T03:35:08;30.60;;;17.73;;
75295;SDS011;64623;44.738;37.804;2023-08-31T03:36:12;27.63;;;19.75;;
75295;SDS011;64623;44.738;37.804;2023-08-31T03:37:15;29.27;;;18.33;;
75295;SDS011;64623;44.738;37.804;2023-08-31T03:38:17;31.55;;;19.83;;
75295;SDS011;64623;44.738;37.804;2023-08-31T03:39:20;25.80;;;16.95;;
75295;SDS011;64623;44.738;37.804;2023-08-31T03:40:23;32.47;;;20.50;;
75295;SDS011;64623;44.738;37.804;2023-08-31T03:41:26;32.38;;;20.20;;
75295;SDS011;64623;44.738;37.804;2023-08-31T03:42:29;29.15;;;21.67;;
75295;SDS011;64623;44.738;37.804;2023-08-31T03:43:32;38.83;;;20.67;;
75295;SDS011;64623;44.738;37.804;2023-08-31T03:44:35;34.45;;;21.92;;
75295;SDS011;64623;44.738;37.804;2023-08-31T03:45:40;37.10;;;21.58;;
75295;SDS011;64623;44.738;37.804;2023-08-31T03:46:43;33.15;;;20.95;;
75295;SDS011;64623;44.738;37.804;2023-08-31T03:47:46;33.75;;;22.20;;
75295;SDS011;64623;44.738;37.804;2023-08-31T03:48:49;31.38;;;20.55;;
75295;SDS011;64623;44.738;37.804;2023-08-31T03:49:52;28.35;;;20.15;;
75295;SDS011;64623;44.738;37.804;2023-08-31T03:50:55;31.13;;;20.40;;
75295;SDS011;64623;44.738;37.804;2023-08-31T03:51:58;31.88;;;22.38;;
75295;SDS011;64623;44.738;37.804;2023-08-31T03:53:01;39.10;;;23.38;;
75295;SDS011;64623;44.738;37.804;2023-08-31T03:54:05;30.63;;;20.77;;
75295;SDS011;64623;44.738;37.804;2023-08-31T03:55:09;37.08;;;22.88;;
75295;SDS011;64623;44.738;37.804;2023-08-31T03:56:12;29.63;;;19.73;;
75295;SDS011;64623;44.738;37.804;2023-08-31T03:57:16;33.20;;;23.00;;
75295;SDS011;64623;44.738;37.804;2023-08-31T03:58:19;33.33;;;21.45;;
75295;SDS011;64623;44.738;37.804;2023-08-31T03:59:25;31.15;;;21.30;;
75295;SDS011;64623;44.738;37.804;2023-08-31T04:00:27;30.45;;;20.35;;
75295;SDS011;64623;44.738;37.804;2023-08-31T04:01:30;25.92;;;17.77;;
75295;SDS011;64623;44.738;37.804;2023-08-31T04:02:34;32.25;;;21.17;;
75295;SDS011;64623;44.738;37.804;2023-08-31T04:03:38;36.78;;;21.90;;
75295;SDS011;64623;44.738;37.804;2023-08-31T04:04:41;27.58;;;20.52;;
75295;SDS011;64623;44.738;37.804;2023-08-31T04:05:43;32.97;;;17.95;;
75295;SDS011;64623;44.738;37.804;2023-08-31T04:06:46;26.88;;;20.20;;
75295;SDS011;64623;44.738;37.804;2023-08-31T04:07:49;39.45;;;29.73;;
75295;SDS011;64623;44.738;37.804;2023-08-31T04:08:52;37.33;;;25.67;;
75295;SDS011;64623;44.738;37.804;2023-08-31T04:09:55;36.22;;;27.10;;
75295;SDS011;64623;44.738;37.804;2023-08-31T04:11:02;25.33;;;20.13;;
75295;SDS011;64623;44.738;37.804;2023-08-31T04:12:05;32.15;;;24.98;;
75295;SDS011;64623;44.738;37.804;2023-08-31T04:13:08;29.23;;;20.67;;
75295;SDS011;64623;44.738;37.804;2023-08-31T04:14:11;23.58;;;20.40;;
75295;SDS011;64623;44.738;37.804;2023-08-31T04:15:14;26.40;;;21.33;;
75295;SDS011;64623;44.738;37.804;2023-08-31T04:16:17;27.35;;;18.75;;
75295;SDS011;64623;44.738;37.804;2023-08-31T04:17:20;25.75;;;18.02;;
75295;SDS011;64623;44.738;37.804;2023-08-31T04:18:23;22.10;;;17.27;;
75295;SDS011;64623;44.738;37.804;2023-08-31T04:19:25;21.70;;;15.00;;
75295;SDS011;64623;44.738;37.804;2023-08-31T04:20:28;28.00;;;21.52;;
75295;SDS011;64623;44.738;37.804;2023-08-31T04:21:31;26.50;;;18.92;;
75295;SDS011;64623;44.738;37.804;2023-08-31T04:22:34;21.23;;;15.70;;
75295;SDS011;64623;44.738;37.804;2023-08-31T04:23:36;24.48;;;18.13;;
75295;SDS011;64623;44.738;37.804;2023-08-31T04:24:39;24.92;;;18.50;;
75295;SDS011;64623;44.738;37.804;2023-08-31T04:25:42;28.48;;;20.63;;
75295;SDS011;64623;44.738;37.804;2023-08-31T04:26:45;23.63;;;17.33;;
75295;SDS011;64623;44.738;37.804;2023-08-31T04:27:50;25.83;;;16.10;;
75295;SDS011;64623;44.738;37.804;2023-08-31T04:28:53;31.00;;;22.02;;
75295;SDS011;64623;44.738;37.804;2023-08-31T04:29:55;30.73;;;21.98;;
75295;SDS011;64623;44.738;37.804;2023-08-31T04:30:58;31.02;;;21.00;;
75295;SDS011;64623;44.738;37.804;2023-08-31T04:32:01;29.10;;;20.77;;
75295;SDS011;64623;44.738;37.804;2023-08-31T04:33:05;29.77;;;18.48;;
75295;SDS011;64623;44.738;37.804;2023-08-31T04:34:09;21.35;;;17.80;;
75295;SDS011;64623;44.738;37.804;2023-08-31T04:35:12;18.15;;;16.17;;
75295;SDS011;64623;44.738;37.804;2023-08-31T04:36:14;14.63;;;11.88;;
75295;SDS011;64623;44.738;37.804;2023-08-31T04:37:17;15.35;;;10.40;;
75295;SDS011;64623;44.738;37.804;2023-08-31T04:38:20;12.10;;;10.90;;
75295;SDS011;64623;44.738;37.804;2023-08-31T04:39:23;18.33;;;16.42;;
75295;SDS011;64623;44.738;37.804;2023-08-31T04:40:27;23.63;;;15.35;;
75295;SDS011;64623;44.738;37.804;2023-08-31T04:41:32;22.27;;;15.45;;
75295;SDS011;64623;44.738;37.804;2023-08-31T04:42:34;18.38;;;15.27;;
75295;SDS011;64623;44.738;37.804;2023-08-31T04:43:38;21.45;;;14.80;;
75295;SDS011;64623;44.738;37.804;2023-08-31T04:44:41;14.18;;;11.10;;
75295;SDS011;64623;44.738;37.804;2023-08-31T04:45:44;16.15;;;14.45;;
75295;SDS011;64623;44.738;37.804;2023-08-31T04:46:47;18.45;;;13.32;;
75295;SDS011;64623;44.738;37.804;2023-08-31T04:47:49;23.70;;;17.00;;
75295;SDS011;64623;44.738;37.804;2023-08-31T04:48:53;22.38;;;19.50;;
75295;SDS011;64623;44.738;37.804;2023-08-31T04:49:56;19.55;;;16.83;;
75295;SDS011;64623;44.738;37.804;2023-08-31T04:51:01;26.75;;;20.23;;
75295;SDS011;64623;44.738;37.804;2023-08-31T04:52:06;25.40;;;19.63;;
75295;SDS011;64623;44.738;37.804;2023-08-31T04:53:08;20.25;;;15.38;;
75295;SDS011;64623;44.738;37.804;2023-08-31T04:54:11;21.50;;;16.08;;
75295;SDS011;64623;44.738;37.804;2023-08-31T04:55:15;26.48;;;16.30;;
75295;SDS011;64623;44.738;37.804;2023-08-31T04:56:18;22.80;;;15.23;;
75295;SDS011;64623;44.738;37.804;2023-08-31T04:57:21;24.10;;;16.17;;
75295;SDS011;64623;44.738;37.804;2023-08-31T04:58:25;17.52;;;11.95;;
75295;SDS011;64623;44.738;37.804;2023-08-31T04:59:28;16.23;;;11.52;;
75295;SDS011;64623;44.738;37.804;2023-08-31T05:00:31;11.93;;;10.65;;
75295;SDS011;64623;44.738;37.804;2023-08-31T05:01:34;13.13;;;9.73;;
75295;SDS011;64623;44.738;37.804;2023-08-31T05:02:37;17.17;;;13.35;;
75295;SDS011;64623;44.738;37.804;2023-08-31T05:03:39;12.93;;;10.82;;
75295;SDS011;64623;44.738;37.804;2023-08-31T05:04:42;10.48;;;8.30;;
75295;SDS011;64623;44.738;37.804;2023-08-31T05:05:45;15.40;;;11.32;;
75295;SDS011;64623;44.738;37.804;2023-08-31T05:06:48;12.57;;;11.13;;
75295;SDS011;64623;44.738;37.804;2023-08-31T05:07:51;15.38;;;10.05;;
75295;SDS011;64623;44.738;37.804;2023-08-31T05:08:54;11.85;;;10.38;;
75295;SDS011;64623;44.738;37.804;2023-08-31T05:09:57;11.80;;;8.68;;
75295;SDS011;64623;44.738;37.804;2023-08-31T05:11:00;9.27;;;7.57;;
75295;SDS011;64623;44.738;37.804;2023-08-31T05:12:03;12.05;;;8.05;;
75295;SDS011;64623;44.738;37.804;2023-08-31T05:13:07;11.38;;;10.23;;
75295;SDS011;64623;44.738;37.804;2023-08-31T05:14:10;11.82;;;9.88;;
75295;SDS011;64623;44.738;37.804;2023-08-31T05:15:13;11.32;;;8.43;;
75295;SDS011;64623;44.738;37.804;2023-08-31T05:16:16;12.75;;;10.10;;
75295;SDS011;64623;44.738;37.804;2023-08-31T05:17:19;11.52;;;10.15;;
75295;SDS011;64623;44.738;37.804;2023-08-31T05:18:24;15.02;;;12.65;;
75295;SDS011;64623;44.738;37.804;2023-08-31T05:19:27;17.02;;;12.27;;
75295;SDS011;64623;44.738;37.804;2023-08-31T05:20:31;17.38;;;10.60;;
75295;SDS011;64623;44.738;37.804;2023-08-31T05:21:34;13.32;;;11.63;;
75295;SDS011;64623;44.738;37.804;2023-08-31T05:22:37;13.23;;;8.90;;
75295;SDS011;64623;44.738;37.804;2023-08-31T05:23:40;13.13;;;10.25;;
75295;SDS011;64623;44.738;37.804;2023-08-31T05:24:44;12.57;;;9.05;;
75295;SDS011;64623;44.738;37.804;2023-08-31T05:25:47;14.60;;;11.07;;
75295;SDS011;64623;44.738;37.804;2023-08-31T05:26:50;12.80;;;11.50;;
75295;SDS011;64623;44.738;37.804;2023-08-31T05:27:53;14.07;;;10.75;;
75295;SDS011;64623;44.738;37.804;2023-08-31T05:28:56;12.88;;;10.27;;
75295;SDS011;64623;44.738;37.804;2023-08-31T05:30:00;12.98;;;9.10;;
75295;SDS011;64623;44.738;37.804;2023-08-31T05:31:05;13.00;;;8.10;;
75295;SDS011;64623;44.738;37.804;2023-08-31T05:32:08;13.02;;;11.02;;
75295;SDS011;64623;44.738;37.804;2023-08-31T05:33:11;13.50;;;10.65;;
75295;SDS011;64623;44.738;37.804;2023-08-31T05:34:16;12.35;;;9.02;;
75295;SDS011;64623;44.738;37.804;2023-08-31T05:35:23;10.77;;;7.85;;
75295;SDS011;64623;44.738;37.804;2023-08-31T05:36:27;9.35;;;8.45;;
75295;SDS011;64623;44.738;37.804;2023-08-31T05:37:33;11.65;;;10.52;;
75295;SDS011;64623;44.738;37.804;2023-08-31T05:39:40;10.10;;;8.02;;
75295;SDS011;64623;44.738;37.804;2023-08-31T05:40:44;11.40;;;10.40;;
75295;SDS011;64623;44.738;37.804;2023-08-31T05:41:48;9.38;;;8.40;;
75295;SDS011;64623;44.738;37.804;2023-08-31T05:42:51;19.13;;;17.50;;
75295;SDS011;64623;44.738;37.804;2023-08-31T05:43:54;22.08;;;20.17;;
75295;SDS011;64623;44.738;37.804;2023-08-31T05:44:58;20.52;;;18.50;;
75295;SDS011;64623;44.738;37.804;2023-08-31T05:46:01;15.90;;;14.45;;
75295;SDS011;64623;44.738;37.804;2023-08-31T05:47:04;16.90;;;15.30;;
75295;SDS011;64623;44.738;37.804;2023-08-31T05:48:07;20.42;;;18.77;;
75295;SDS011;64623;44.738;37.804;2023-08-31T05:49:11;18.73;;;16.83;;
75295;SDS011;64623;44.738;37.804;2023-08-31T05:50:14;16.95;;;15.30;;
75295;SDS011;64623;44.738;37.804;2023-08-31T05:51:17;15.77;;;14.27;;
75295;SDS011;64623;44.738;37.804;2023-08-31T05:52:21;13.32;;;11.65;;
75295;SDS011;64623;44.738;37.804;2023-08-31T05:53:24;13.77;;;12.48;;
75295;SDS011;64623;44.738;37.804;2023-08-31T05:54:27;18.17;;;16.10;;
75295;SDS011;64623;44.738;37.804;2023-08-31T05:55:30;17.20;;;15.40;;
75295;SDS011;64623;44.738;37.804;2023-08-31T05:56:35;22.88;;;20.67;;
75295;SDS011;64623;44.738;37.804;2023-08-31T05:57:38;15.00;;;13.23;;
75295;SDS011;64623;44.738;37.804;2023-08-31T05:58:42;18.95;;;17.27;;
75295;SDS011;64623;44.738;37.804;2023-08-31T05:59:45;21.48;;;19.60;;
75295;SDS011;64623;44.738;37.804;2023-08-31T06:00:48;21.00;;;19.30;;
75295;SDS011;64623;44.738;37.804;2023-08-31T06:01:51;16.35;;;14.82;;
75295;SDS011;64623;44.738;37.804;2023-08-31T06:02:56;16.33;;;14.82;;
75295;SDS011;64623;44.738;37.804;2023-08-31T06:03:59;19.88;;;17.90;;
75295;SDS011;64623;44.738;37.804;2023-08-31T06:05:02;15.90;;;14.48;;
75295;SDS011;64623;44.738;37.804;2023-08-31T06:06:06;18.58;;;17.08;;
75295;SDS011;64623;44.738;37.804;2023-08-31T06:07:09;11.23;;;10.15;;
75295;SDS011;64623;44.738;37.804;2023-08-31T06:08:12;14.35;;;13.05;;
75295;SDS011;64623;44.738;37.804;2023-08-31T06:09:16;17.70;;;16.00;;
75295;SDS011;64623;44.738;37.804;2023-08-31T06:10:19;10.73;;;9.05;;
75295;SDS011;64623;44.738;37.804;2023-08-31T06:11:22;11.68;;;9.13;;
75295;SDS011;64623;44.738;37.804;2023-08-31T06:12:25;11.35;;;10.05;;
75295;SDS011;64623;44.738;37.804;2023-08-31T06:13:28;13.10;;;11.38;;
75295;SDS011;64623;44.738;37.804;2023-08-31T06:14:32;11.27;;;10.15;;
75295;SDS011;64623;44.738;37.804;2023-08-31T06:15:35;8.98;;;8.07;;
75295;SDS011;64623;44.738;37.804;2023-08-31T06:16:38;10.15;;;9.25;;
75295;SDS011;64623;44.738;37.804;2023-08-31T06:17:41;11.63;;;9.88;;
75295;SDS011;64623;44.738;37.804;2023-08-31T06:18:44;11.95;;;9.98;;